createdAt,value
2022-08-27T03:41:19.311Z,79.96394076560806
2022-08-27T03:44:24.861Z,80.25952271572469
2022-08-27T05:21:38.056Z,85.11320176438225
2022-08-27T05:24:40.582Z,86.07414985716318
2022-08-27T05:27:36.565Z,86.86055057748634
2022-08-27T05:31:17.748Z,87.2985056741863
2022-08-27T05:34:25.442Z,87.58855829374869
2022-08-27T05:37:16.198Z,88.45622067269218
2022-08-27T05:41:19.615Z,88.84833787266463
2022-08-27T05:44:40.735Z,89.24978198400426
2022-08-27T05:47:16.565Z,89.80892986180379
2022-08-27T05:51:25.343Z,90.22692422075433
2022-08-27T05:54:19.965Z,91.00049006419664
2022-08-27T05:57:16.954Z,92.5562646326947
2022-08-27T06:01:21.499Z,93.80689839318653
2022-08-27T06:04:19.290Z,93.89298954758793
2022-08-27T06:07:17.233Z,93.68476877317903
2022-08-27T06:11:17.099Z,90.65294520686683
2022-08-27T06:14:16.919Z,90.81351831682035
2022-08-27T06:17:16.948Z,90.83652329289255
2022-08-27T06:21:21.475Z,90.19531856225274
2022-08-27T06:24:16.613Z,89.83341322320207
2022-08-27T06:27:19.001Z,91.14199005734667
2022-08-27T06:31:18.304Z,90.64281967803481
2022-08-27T06:34:16.002Z,91.88698336397208
2022-08-27T06:37:16.102Z,92.60024163543369
2022-08-27T06:41:23.542Z,93.5155980871412
2022-08-27T06:44:16.774Z,93.35041803568546
2022-08-27T06:47:16.634Z,92.97967183088514
2022-08-27T06:51:19.073Z,94.10963948867948
2022-08-27T06:54:16.425Z,94.38921122665332
2022-08-27T06:57:16.547Z,94.64494083576339
2022-08-27T07:01:18.409Z,93.50139590352188
2022-08-27T07:04:19.003Z,93.11123872207556
2022-08-27T07:07:31.818Z,92.168105136895
2022-08-27T07:11:16.455Z,91.08886507833076
2022-08-27T07:14:16.766Z,91.32320917123322
2022-08-27T07:17:17.383Z,92.69601728495792
2022-08-27T07:21:16.757Z,92.47335834569901
2022-08-27T07:24:17.061Z,90.9677651665507
2022-08-27T07:27:16.717Z,90.28513221311499
2022-08-27T07:31:20.327Z,90.45564444599327
2022-08-27T07:34:18.087Z,89.1694189454041
2022-08-27T07:37:17.039Z,86.45294524485078
2022-08-27T07:41:15.954Z,85.08995779323197
2022-08-27T08:01:16.762Z,78.57119732180674
2022-08-27T08:04:20.068Z,76.34232402281734
2022-08-27T08:07:16.474Z,77.13129687771689
2022-08-27T08:11:17.546Z,75.82307944778196
2022-08-27T08:14:17.636Z,75.60675030563
2022-08-27T08:17:17.030Z,74.98315762577019
2022-08-27T08:21:15.783Z,74.69230407060081
2022-08-27T08:24:16.743Z,75.8693011613205
2022-08-27T08:27:16.368Z,74.6807379095782
2022-08-27T08:31:16.674Z,75.6675789956369
2022-08-27T08:34:17.902Z,75.796890876077
2022-08-27T08:37:16.792Z,74.29801286579932
2022-08-27T08:41:39.329Z,71.9111973406314
2022-08-27T08:44:23.836Z,70.74844646047941
2022-08-27T08:47:21.073Z,70.10944551446943
2022-08-27T08:51:22.008Z,70.45113641777068
2022-08-27T08:54:19.985Z,70.29316572332503
2022-08-27T08:57:22.024Z,72.1128407353363
2022-08-27T09:01:19.948Z,68.0656813160474
2022-08-27T09:04:17.383Z,68.63318394911839
2022-08-27T09:07:28.069Z,70.02566303986772
2022-08-27T09:11:26.949Z,70.04787584740374
2022-08-27T09:14:29.753Z,66.84578329712755
2022-08-27T09:17:16.648Z,68.05880973503531
2022-08-27T09:31:18.969Z,65.73157890386773
2022-08-27T10:11:20.044Z,58.07049270863212
2022-08-27T10:14:25.697Z,56.84583643911041
2022-08-27T10:17:23.060Z,57.194583577241936
2022-08-27T10:21:28.786Z,55.61637549017899
2022-08-27T10:24:26.153Z,55.72775953586653
2022-08-27T10:27:26.774Z,53.7677970773152
2022-08-27T10:31:25.103Z,55.792405441129496
2022-08-27T10:34:31.302Z,54.55882622998855
2022-08-27T10:37:36.820Z,56.58815403421927
2022-08-27T10:41:21.884Z,56.481905775241515
2022-08-27T10:44:37.838Z,56.72207061578711
2022-08-27T10:47:29.918Z,56.77630678781149
2022-08-27T10:51:24.184Z,55.64807175254116
2022-08-27T10:54:26.366Z,53.334999728593274
2022-08-27T11:01:43.028Z,52.73621159112766
2022-08-27T11:04:36.934Z,48.5083087973541
2022-08-27T11:07:37.260Z,48.588471066929415
2022-08-27T11:12:12.746Z,46.76956007258884
2022-08-27T11:14:26.757Z,47.89288435455908
2022-08-27T11:17:24.013Z,47.68163428332262
2022-08-27T11:21:23.121Z,46.323422049150636
2022-08-27T11:24:29.937Z,48.0562443092641
2022-08-27T11:27:20.412Z,44.95224418898692
2022-08-27T11:31:22.672Z,45.87578067682348
2022-08-27T11:34:24.065Z,43.09450436703231
2022-08-27T11:37:33.548Z,45.39525174284848
2022-08-27T11:41:45.395Z,43.803072994989
2022-08-27T11:44:20.389Z,44.97233755322523
2022-08-27T11:47:20.389Z,44.33942367919283
2022-08-27T11:51:29.937Z,44.42605182999241
2022-08-27T11:54:28.501Z,44.74344390320955
2022-08-27T11:57:28.295Z,49.52941994787834
2022-08-27T12:01:25.387Z,55.146536686108426
2022-08-27T12:04:31.650Z,55.63105461827078
2022-08-27T12:07:32.121Z,55.76456105896281
2022-08-27T12:11:28.749Z,58.35221585685165
2022-08-27T12:14:35.385Z,57.91016399177825
2022-08-27T12:17:25.864Z,56.21091285668968
2022-08-27T12:21:32.585Z,59.456578653412436
2022-08-27T12:24:40.701Z,62.90618159420883
2022-08-27T12:27:29.389Z,66.83244760674036
2022-08-27T12:41:25.910Z,65.17007644048005
2022-08-27T12:51:24.079Z,71.6012728706521
2022-08-27T12:54:30.097Z,71.88112874207783
2022-08-27T12:57:26.407Z,73.57542718643197
2022-08-27T13:01:30.986Z,74.70519801451638
2022-08-27T13:04:22.274Z,74.38622647688159
2022-08-27T13:07:25.632Z,73.75953821332972
2022-08-27T13:11:20.815Z,76.18098879381121
2022-08-27T13:14:20.628Z,75.2121833064474
2022-08-27T13:17:19.973Z,75.65596783828148
2022-08-27T13:21:21.193Z,75.54947784821688
2022-08-27T13:24:25.777Z,76.90295390620443
2022-08-27T13:27:24.051Z,79.54787363669942
2022-08-27T13:31:22.221Z,80.38101385873586
2022-08-27T13:34:18.988Z,78.68081573368526
2022-08-27T13:37:23.972Z,78.94824187313654
2022-08-27T13:41:23.465Z,79.9595206582675
2022-08-27T13:44:22.762Z,80.49813441051333
2022-08-27T13:47:19.635Z,79.58735983242846
2022-08-27T13:51:24.540Z,80.84133711116147
2022-08-27T13:54:18.800Z,78.98970919768179
2022-08-27T13:57:24.441Z,79.14679835913716
2022-08-27T14:01:29.974Z,78.14417508442628
2022-08-27T14:04:23.257Z,78.83054077476284
2022-08-27T14:07:33.473Z,77.90257546013208
2022-08-27T14:11:22.954Z,77.21089480333306
2022-08-27T14:14:17.524Z,77.52586751290703
2022-08-27T14:17:24.862Z,76.21902108544873
2022-08-27T14:21:16.244Z,77.49225557493496
2022-08-27T14:24:16.498Z,80.0682399277796
2022-08-27T14:27:17.081Z,80.82138969196099
2022-08-27T14:31:18.497Z,80.59098486086185
2022-08-27T14:34:17.226Z,79.23838076759155
2022-08-27T14:37:17.170Z,75.6306418765611
2022-08-27T14:41:16.428Z,78.17073431821792
2022-08-27T14:44:16.676Z,80.19356934988326
2022-08-27T14:47:16.550Z,80.56744288155762
2022-08-27T14:51:22.684Z,82.05695554118128
2022-08-27T14:54:16.377Z,81.9570219002184
2022-08-27T14:57:16.352Z,83.52525262633283
2022-08-27T15:31:36.691Z,89.99157003121381
2022-08-27T15:34:36.566Z,90.54994939644267
2022-08-27T15:37:36.762Z,90.07739439064817
2022-08-27T15:41:17.005Z,88.63000780088205
2022-08-27T15:44:16.315Z,88.35214044556557
2022-08-27T15:47:19.535Z,87.55939242582107
2022-08-27T15:51:21.878Z,88.52619329358757
2022-08-27T15:54:16.775Z,86.32314492638383
2022-08-27T15:57:18.100Z,85.78515534327691
2022-08-27T16:01:23.387Z,87.07687394667374
2022-08-27T16:04:18.233Z,87.1985707451197
2022-08-27T16:07:17.772Z,83.77839085744522
2022-08-27T16:11:16.860Z,81.53991924784474
2022-08-27T16:14:17.164Z,80.2911287956748
2022-08-27T16:17:17.130Z,76.93654549730701
2022-08-27T16:21:16.799Z,80.35853402184588
2022-08-27T16:24:17.325Z,79.57686337851298
2022-08-27T16:27:16.794Z,78.29921003328822
2022-08-27T16:31:17.334Z,77.98824925076424
2022-08-27T16:34:23.446Z,78.19566273989226
2022-08-27T16:37:16.975Z,76.80475800797443
2022-08-27T16:41:16.785Z,77.98239396559373
2022-08-27T16:44:17.802Z,77.47463405367859
2022-08-27T16:47:16.493Z,80.50994112476964
2022-08-27T16:51:18.678Z,82.63533356519108
2022-08-27T16:54:17.416Z,81.74611362521311
2022-08-27T16:57:16.723Z,80.39653330602096
2022-08-27T17:01:20.118Z,79.70396699086733
2022-08-27T17:04:26.537Z,80.63858663374144
2022-08-27T17:07:17.038Z,82.33374936748318
2022-08-27T17:11:18.887Z,81.82600928160377
2022-08-27T17:14:16.980Z,81.48498083565545
2022-08-27T17:17:17.790Z,83.24729671200122
2022-08-27T17:21:20.264Z,82.33852096598272
2022-08-27T17:24:16.672Z,80.50369216252959
2022-08-27T17:27:20.412Z,80.78646071004594
2022-08-27T17:31:27.115Z,79.64208746753884
2022-08-27T17:34:22.258Z,79.99081560037563
2022-08-27T17:37:16.740Z,81.32753717637146
2022-08-27T17:41:24.209Z,82.10759192637123
2022-08-27T17:44:22.413Z,83.0883030080823
2022-08-27T17:47:16.840Z,83.76867105245248
2022-08-27T17:51:17.035Z,85.29389591097654
2022-08-27T17:54:26.057Z,85.37737764284104
2022-08-27T17:57:19.104Z,84.70271624042769
2022-08-27T18:01:20.224Z,85.41125509703299
2022-08-27T18:04:17.665Z,85.71074499876867
2022-08-27T18:07:17.261Z,86.32934549134342
2022-08-27T18:11:17.168Z,86.42098243916325
2022-08-27T18:14:18.708Z,87.20578708666513
2022-08-27T18:17:16.764Z,86.33807275755537
2022-08-27T18:21:25.455Z,86.40180931748827
2022-08-27T18:24:17.074Z,85.27562522177162
2022-08-27T18:27:17.021Z,85.80658962843017
2022-08-27T18:31:18.985Z,85.0427411926591
2022-08-27T18:34:20.710Z,84.55146961075044
2022-08-27T18:37:16.844Z,84.41494971719467
2022-08-27T18:41:17.870Z,85.33109112409619
2022-08-27T18:44:17.537Z,84.91742418583053
2022-08-27T18:47:16.648Z,85.13842781366583
2022-08-27T18:51:17.275Z,84.5654331011453
2022-08-27T18:54:16.449Z,84.70489962841108
2022-08-27T18:57:16.174Z,84.51609679584634
2022-08-27T19:01:19.513Z,84.71550123242665
2022-08-27T19:04:19.018Z,84.19972186506324
2022-08-27T19:07:16.667Z,83.67617120760235
2022-08-27T19:11:17.060Z,83.16442488789738
2022-08-27T19:14:16.884Z,83.89513608274575
2022-08-27T19:17:23.983Z,84.85928313763235
2022-08-27T19:21:16.588Z,84.68866813767235
2022-08-27T19:24:17.747Z,84.26251111475268
2022-08-27T19:27:23.027Z,84.37716926300865
2022-08-27T19:31:16.511Z,83.64723273979772
2022-08-27T19:34:17.038Z,84.42900381245339
2022-08-27T19:37:21.992Z,84.32722589719585
2022-08-27T19:41:17.877Z,84.46533785913756
2022-08-27T19:44:16.623Z,83.87231687563725
2022-08-27T19:47:21.336Z,83.61161266009519
2022-08-27T19:51:18.277Z,83.21453932807088
2022-08-27T19:54:17.179Z,83.95856549086103
2022-08-27T19:57:16.798Z,84.63418977526337
2022-08-27T20:01:16.093Z,84.94249343647536
2022-08-27T20:04:16.154Z,84.65616882194603
2022-08-27T20:07:16.369Z,83.73333703264358
2022-08-27T20:11:17.300Z,84.79569427437431
2022-08-27T20:14:17.524Z,85.63610000043653
2022-08-27T20:17:21.809Z,86.93855682642631
2022-08-27T20:21:15.996Z,86.01434546450766
2022-08-27T20:24:16.871Z,86.53977269647177
2022-08-27T20:27:16.091Z,85.89912156925514
2022-08-27T20:31:18.206Z,84.99171371596317
2022-08-27T20:34:16.531Z,84.80057835459321
2022-08-27T20:37:17.400Z,84.85318370935836
2022-08-27T20:41:16.257Z,84.86131873309282
2022-08-27T20:44:17.050Z,86.20637133219113
2022-08-27T20:47:17.842Z,87.24792479076932
2022-08-27T20:51:17.342Z,86.57478255397491
2022-08-27T20:54:16.615Z,86.80954131563921
2022-08-27T20:57:16.544Z,88.34359261771004
2022-08-27T21:01:16.636Z,84.45373587472876
2022-08-27T21:04:16.501Z,83.55488121379027
2022-08-27T21:07:19.803Z,82.87406163374733
2022-08-27T21:11:17.039Z,83.29653194233362
2022-08-27T21:14:16.315Z,83.43873831327694
2022-08-27T21:17:16.470Z,83.46532671414963
2022-08-27T21:21:16.002Z,83.3754818994829
2022-08-27T21:24:16.757Z,84.9809812171975
2022-08-27T21:27:18.019Z,85.23921604451539
2022-08-27T21:31:17.174Z,84.74730736472232
2022-08-27T21:34:16.499Z,85.36980447208474
2022-08-27T21:37:17.711Z,85.70975332081574
2022-08-27T21:41:17.414Z,86.01878706036972
2022-08-27T21:44:16.828Z,86.69042222475241
2022-08-27T21:47:16.748Z,86.83993575413328
2022-08-27T21:51:24.335Z,87.2874008095793
2022-08-27T21:54:16.713Z,86.12087862525398
2022-08-27T21:57:16.706Z,86.30023378767707
2022-08-27T22:01:19.050Z,86.11357966154387
2022-08-27T22:04:17.064Z,86.17027399998143
2022-08-27T22:07:17.473Z,86.71169194257166
2022-08-27T22:11:23.323Z,86.09155932078686
2022-08-27T22:14:16.736Z,86.26600041211151
2022-08-27T22:17:16.657Z,86.3693316697205
2022-08-27T22:21:16.311Z,87.60195140025704
2022-08-27T22:24:16.586Z,87.5181975426443
2022-08-27T22:27:16.498Z,87.29630783977896
2022-08-27T22:31:16.183Z,87.41274249772913
2022-08-27T22:34:16.153Z,87.58816793374979
2022-08-27T22:37:16.200Z,87.76714356223839
2022-08-27T22:41:18.503Z,87.21517063947567
2022-08-27T22:44:16.537Z,87.49092727188392
2022-08-27T22:47:16.339Z,87.29130187388894
2022-08-27T22:51:16.047Z,87.07472613168616
2022-08-27T22:54:16.829Z,87.67974458958015
2022-08-27T22:57:16.515Z,87.13680957878158
2022-08-27T23:01:18.824Z,86.60539063148036
2022-08-27T23:04:16.521Z,87.84006751906274
2022-08-27T23:07:16.308Z,88.67188623005599
2022-08-27T23:11:16.043Z,87.88562647929881
2022-08-27T23:14:16.216Z,88.33988187561022
2022-08-27T23:17:16.236Z,89.0998981291725
2022-08-27T23:21:17.380Z,89.83771799806856
2022-08-27T23:24:16.565Z,90.5139911896227
2022-08-27T23:27:32.337Z,91.05212103657576
2022-08-27T23:31:16.224Z,90.17145488101872
2022-08-27T23:34:16.957Z,89.31256583735617
2022-08-27T23:37:16.011Z,89.46099941789473
2022-08-27T23:41:16.379Z,89.10909321360418
2022-08-27T23:44:16.355Z,89.56010628384821
2022-08-27T23:47:16.933Z,89.63093479336784
2022-08-27T23:51:16.856Z,89.01229842317268
2022-08-27T23:54:16.706Z,88.13819267781543
2022-08-27T23:57:16.996Z,87.90184041274863
